createdAt,value
2022-11-29T00:01:01.093Z,11.27
2022-11-29T00:04:04.316Z,11.27
2022-11-29T00:07:06.646Z,12.45
2022-11-29T00:10:09.673Z,10.48
2022-11-29T00:13:12.071Z,11.52
2022-11-29T00:16:15.780Z,10.48
2022-11-29T00:19:18.311Z,10.68
2022-11-29T00:22:20.656Z,10.77
2022-11-29T00:25:22.894Z,10.88
2022-11-29T00:28:25.346Z,10.27
2022-11-29T00:31:30.787Z,12.30
2022-11-29T00:34:33.218Z,10.65
2022-11-29T00:37:35.690Z,10.18
2022-11-29T00:40:38.082Z,10.45
2022-11-29T00:43:40.759Z,10.52
2022-11-29T00:46:44.323Z,11.30
2022-11-29T00:49:46.644Z,11.95
2022-11-29T00:52:49.542Z,10.73
2022-11-29T00:55:52.798Z,11.23
2022-11-29T00:58:55.424Z,11.18
2022-11-29T01:01:59.011Z,10.77
2022-11-29T01:05:01.365Z,10.48
2022-11-29T01:08:03.808Z,10.95
2022-11-29T01:11:09.021Z,10.60
2022-11-29T01:14:12.405Z,11.45
2022-11-29T01:17:16.187Z,10.80
2022-11-29T01:20:18.448Z,10.68
2022-11-29T01:23:20.673Z,11.52
2022-11-29T01:26:24.824Z,10.93
2022-11-29T01:29:27.048Z,11.00
2022-11-29T01:32:30.958Z,11.70
2022-11-29T01:35:33.187Z,11.90
2022-11-29T01:38:36.222Z,11.45
2022-11-29T01:41:38.513Z,13.57
2022-11-29T01:45:07.776Z,12.25
2022-11-29T01:48:12.602Z,13.52
2022-11-29T01:51:15.035Z,13.10
2022-11-29T01:54:17.861Z,14.00
2022-11-29T01:57:20.489Z,12.68
2022-11-29T02:00:23.141Z,12.70
2022-11-29T02:03:26.819Z,13.55
2022-11-29T02:06:29.628Z,11.88
2022-11-29T02:09:31.878Z,12.15
2022-11-29T02:12:40.311Z,13.30
2022-11-29T02:15:46.515Z,12.45
2022-11-29T02:18:55.848Z,15.13
2022-11-29T02:22:02.661Z,13.20
2022-11-29T02:25:19.834Z,12.60
2022-11-29T02:28:50.951Z,15.35
2022-11-29T02:32:19.692Z,12.68
2022-11-29T02:35:34.226Z,13.75
2022-11-29T02:38:49.941Z,13.90
2022-11-29T02:42:04.439Z,13.55
2022-11-29T02:45:10.700Z,16.70
2022-11-29T02:48:29.148Z,14.00
2022-11-29T02:51:39.405Z,13.93
2022-11-29T02:54:46.620Z,15.40
2022-11-29T02:57:56.251Z,14.45
2022-11-29T03:01:03.632Z,13.98
2022-11-29T03:04:11.588Z,15.65
2022-11-29T03:07:21.175Z,16.38
2022-11-29T03:10:30.903Z,15.55
2022-11-29T03:13:41.955Z,16.73
2022-11-29T03:16:48.341Z,15.60
2022-11-29T03:20:04.379Z,16.02
2022-11-29T03:23:14.991Z,16.52
2022-11-29T03:26:21.351Z,17.48
2022-11-29T03:29:27.908Z,15.48
2022-11-29T03:32:34.624Z,17.48
2022-11-29T03:35:40.297Z,18.52
2022-11-29T03:38:45.089Z,17.90
2022-11-29T03:41:51.713Z,18.25
2022-11-29T03:44:58.565Z,19.70
2022-11-29T03:48:07.592Z,18.42
2022-11-29T03:51:14.581Z,18.27
2022-11-29T03:54:22.971Z,18.45
2022-11-29T03:57:31.137Z,21.98
2022-11-29T04:00:41.513Z,19.27
2022-11-29T04:04:02.488Z,20.27
2022-11-29T04:07:09.718Z,20.23
2022-11-29T04:10:20.256Z,21.90
2022-11-29T04:13:46.645Z,22.70
2022-11-29T04:17:09.973Z,25.38
2022-11-29T04:20:47.960Z,24.33
2022-11-29T04:24:35.287Z,27.42
2022-11-29T04:27:49.254Z,26.08
2022-11-29T04:30:59.785Z,27.02
2022-11-29T04:34:39.777Z,28.42
2022-11-29T04:37:59.238Z,29.00
2022-11-29T04:41:36.957Z,30.58
2022-11-29T04:44:58.945Z,30.42
2022-11-29T04:48:13.901Z,33.03
2022-11-29T04:51:24.757Z,30.98
2022-11-29T04:54:31.360Z,34.00
2022-11-29T04:57:38.708Z,34.97
2022-11-29T05:00:48.626Z,29.92
2022-11-29T05:03:57.241Z,33.30
2022-11-29T05:07:03.827Z,32.00
2022-11-29T05:10:19.735Z,32.42
2022-11-29T05:13:29.041Z,34.95
2022-11-29T05:16:46.435Z,38.72
2022-11-29T05:20:15.576Z,34.33
2022-11-29T05:23:30.212Z,35.50
2022-11-29T05:26:37.383Z,38.28
2022-11-29T05:29:42.195Z,32.75
2022-11-29T05:32:55.684Z,35.05
2022-11-29T05:36:02.485Z,36.15
2022-11-29T05:39:24.734Z,36.60
2022-11-29T05:42:51.434Z,37.28
2022-11-29T05:45:58.980Z,37.33
2022-11-29T05:49:12.503Z,34.67
2022-11-29T05:52:22.125Z,36.80
2022-11-29T05:55:35.178Z,33.15
2022-11-29T05:58:43.445Z,35.72
2022-11-29T06:01:50.439Z,33.00
2022-11-29T06:05:03.958Z,40.05
2022-11-29T06:08:10.803Z,35.95
2022-11-29T06:11:16.534Z,35.80
2022-11-29T06:14:34.303Z,41.13
2022-11-29T06:17:54.094Z,39.58
2022-11-29T06:21:12.646Z,39.78
2022-11-29T06:24:26.245Z,42.78
2022-11-29T06:27:49.552Z,40.53
2022-11-29T06:31:00.970Z,45.40
2022-11-29T06:34:11.031Z,42.22
2022-11-29T06:37:19.266Z,40.80
2022-11-29T06:40:22.230Z,48.90
2022-11-29T06:43:28.057Z,43.50
2022-11-29T06:46:38.564Z,44.50
2022-11-29T06:49:46.463Z,43.58
2022-11-29T06:52:55.243Z,44.10
2022-11-29T06:56:04.895Z,43.50
2022-11-29T06:59:11.592Z,43.45
2022-11-29T07:02:25.486Z,46.75
2022-11-29T07:05:29.245Z,40.45
2022-11-29T07:08:33.796Z,41.25
2022-11-29T07:11:36.782Z,46.15
2022-11-29T07:14:39.598Z,43.33
2022-11-29T07:17:51.419Z,40.33
2022-11-29T07:21:01.482Z,42.13
2022-11-29T07:24:09.199Z,41.15
2022-11-29T07:27:16.217Z,41.42
2022-11-29T07:30:21.052Z,41.17
2022-11-29T07:33:30.138Z,44.15
2022-11-29T07:36:40.415Z,43.70
2022-11-29T07:39:50.080Z,38.40
2022-11-29T07:43:04.660Z,44.40
2022-11-29T07:46:08.204Z,40.75
2022-11-29T07:49:11.585Z,43.38
2022-11-29T07:52:16.555Z,38.28
2022-11-29T07:55:21.812Z,42.75
2022-11-29T07:58:25.208Z,41.47
2022-11-29T08:01:27.568Z,45.85
2022-11-29T08:04:30.090Z,45.75
2022-11-29T08:07:34.950Z,43.50
2022-11-29T08:10:38.642Z,44.03
2022-11-29T08:13:41.517Z,37.85
2022-11-29T08:16:43.922Z,39.60
2022-11-29T08:19:46.232Z,36.17
2022-11-29T08:22:54.525Z,38.30
2022-11-29T08:26:00.869Z,40.03
2022-11-29T08:29:04.133Z,41.03
2022-11-29T08:32:06.524Z,36.60
2022-11-29T08:35:12.251Z,39.70
2022-11-29T08:38:14.579Z,40.38
2022-11-29T08:41:18.385Z,34.92
2022-11-29T08:44:20.705Z,35.70
2022-11-29T08:47:38.185Z,37.70
2022-11-29T08:50:40.574Z,35.63
2022-11-29T08:53:43.132Z,40.05
2022-11-29T09:00:10.488Z,39.78
2022-11-29T09:03:31.605Z,36.95
2022-11-29T09:06:39.275Z,37.85
2022-11-29T09:09:41.537Z,34.35
2022-11-29T09:12:45.796Z,34.97
2022-11-29T09:15:48.514Z,39.78
2022-11-29T09:18:52.345Z,40.30
2022-11-29T09:21:54.851Z,38.33
2022-11-29T09:24:57.362Z,43.47
2022-11-29T09:28:02.874Z,37.17
2022-11-29T09:31:05.601Z,40.55
2022-11-29T09:34:07.976Z,40.03
2022-11-29T09:37:10.359Z,40.70
2022-11-29T09:40:16.202Z,44.00
2022-11-29T09:43:26.806Z,46.72
2022-11-29T09:46:36.927Z,40.70
2022-11-29T09:49:54.174Z,41.75
2022-11-29T09:53:05.850Z,41.88
2022-11-29T09:56:14.605Z,42.35
2022-11-29T09:59:22.806Z,38.25
2022-11-29T10:02:30.562Z,39.13
2022-11-29T10:05:38.550Z,37.70
2022-11-29T10:08:45.843Z,38.83
2022-11-29T10:11:59.136Z,37.92
2022-11-29T10:15:09.086Z,37.28
2022-11-29T10:18:16.550Z,35.92
2022-11-29T10:21:22.788Z,39.22
2022-11-29T10:24:25.638Z,33.30
2022-11-29T10:27:29.586Z,31.80
2022-11-29T10:30:34.797Z,36.45
2022-11-29T10:33:39.878Z,34.13
2022-11-29T10:36:44.206Z,33.75
2022-11-29T10:39:48.662Z,31.35
2022-11-29T10:42:54.068Z,29.83
2022-11-29T10:45:58.756Z,33.17
2022-11-29T10:49:03.487Z,36.28
2022-11-29T10:52:11.823Z,33.42
2022-11-29T10:55:16.739Z,36.10
2022-11-29T10:58:26.255Z,30.23
2022-11-29T11:01:33.526Z,28.23
2022-11-29T11:04:42.252Z,29.02
2022-11-29T11:07:45.609Z,29.90
2022-11-29T11:10:55.390Z,26.70
2022-11-29T11:14:03.155Z,26.95
2022-11-29T11:17:21.330Z,26.08
2022-11-29T11:20:25.058Z,24.08
2022-11-29T11:23:29.128Z,21.83
2022-11-29T11:26:42.086Z,22.25
2022-11-29T11:29:44.757Z,21.95
2022-11-29T11:33:13.305Z,20.83
2022-11-29T11:36:22.673Z,22.77
2022-11-29T11:39:27.970Z,25.40
2022-11-29T11:42:37.217Z,24.77
2022-11-29T11:45:39.588Z,24.35
2022-11-29T11:48:43.394Z,24.17
2022-11-29T11:51:45.701Z,26.33
2022-11-29T11:54:51.811Z,26.10
2022-11-29T11:58:03.374Z,23.35
2022-11-29T12:01:17.437Z,26.40
2022-11-29T12:04:23.850Z,22.55
2022-11-29T12:07:59.835Z,24.00
2022-11-29T12:10:59.734Z,27.10
2022-11-29T12:14:05.748Z,25.27
2022-11-29T12:17:20.021Z,23.73
2022-11-29T12:20:26.898Z,24.52
2022-11-29T12:23:35.467Z,26.15
2022-11-29T12:30:02.072Z,23.17
2022-11-29T12:33:16.175Z,23.48
2022-11-29T12:36:28.517Z,22.42
2022-11-29T12:39:52.454Z,25.42
2022-11-29T12:43:00.421Z,28.13
2022-11-29T12:46:09.229Z,27.08
2022-11-29T12:49:16.569Z,24.27
2022-11-29T12:52:24.096Z,23.55
2022-11-29T12:55:30.258Z,26.38
2022-11-29T12:58:41.356Z,25.38
2022-11-29T13:02:02.098Z,28.58
2022-11-29T13:05:12.810Z,26.75
2022-11-29T13:08:27.763Z,28.77
2022-11-29T13:11:33.735Z,26.23
2022-11-29T13:14:43.466Z,25.25
2022-11-29T13:18:02.665Z,25.77
2022-11-29T13:21:09.937Z,28.48
2022-11-29T13:24:21.322Z,26.92
2022-11-29T13:27:26.965Z,26.40
2022-11-29T13:30:29.391Z,29.60
2022-11-29T13:33:39.708Z,26.90
2022-11-29T13:36:52.479Z,29.27
2022-11-29T13:40:04.917Z,25.65
2022-11-29T13:43:21.765Z,28.00
2022-11-29T13:46:41.151Z,27.40
2022-11-29T13:50:05.384Z,27.75
2022-11-29T13:53:15.209Z,27.25
2022-11-29T13:57:05.833Z,27.08
2022-11-29T14:00:34.172Z,26.70
2022-11-29T14:03:41.324Z,25.17
2022-11-29T14:06:48.356Z,27.02
2022-11-29T14:09:57.683Z,28.23
2022-11-29T14:13:21.333Z,27.80
2022-11-29T14:16:31.586Z,25.73
2022-11-29T14:19:34.855Z,30.38
2022-11-29T14:23:13.803Z,27.95
2022-11-29T14:26:30.606Z,27.10
2022-11-29T14:29:55.340Z,29.33
2022-11-29T14:33:02.694Z,28.27
2022-11-29T14:36:26.176Z,28.00
2022-11-29T14:39:31.606Z,29.58
2022-11-29T14:43:16.069Z,28.15
2022-11-29T14:46:29.459Z,29.03
2022-11-29T14:49:40.884Z,28.15
2022-11-29T14:52:51.052Z,27.17
2022-11-29T14:56:32.170Z,25.55
2022-11-29T14:59:50.694Z,26.05
2022-11-29T15:02:55.824Z,25.27
2022-11-29T15:06:01.204Z,27.30
2022-11-29T15:09:10.145Z,26.38
2022-11-29T15:12:30.498Z,25.55
2022-11-29T15:15:50.261Z,24.67
2022-11-29T15:19:22.855Z,25.25
2022-11-29T15:22:28.297Z,26.42
2022-11-29T15:25:33.396Z,24.40
2022-11-29T15:28:36.065Z,25.52
2022-11-29T15:31:40.978Z,24.65
2022-11-29T15:34:50.270Z,25.52
2022-11-29T15:37:54.540Z,27.30
2022-11-29T15:40:58.560Z,23.30
2022-11-29T15:44:14.571Z,25.38
2022-11-29T15:47:22.279Z,27.58
2022-11-29T15:50:26.240Z,26.00
2022-11-29T15:53:36.175Z,27.30
2022-11-29T15:56:43.448Z,24.63
2022-11-29T15:59:48.899Z,26.95
2022-11-29T16:02:53.902Z,25.67
2022-11-29T16:06:01.834Z,24.33
2022-11-29T16:09:07.204Z,27.02
2022-11-29T16:12:13.193Z,23.55
2022-11-29T16:15:25.610Z,25.67
2022-11-29T16:18:29.507Z,25.23
2022-11-29T16:21:32.836Z,24.42
2022-11-29T16:24:37.976Z,24.27
2022-11-29T16:27:41.006Z,26.02
2022-11-29T16:30:43.653Z,24.13
2022-11-29T16:33:50.321Z,24.23
2022-11-29T16:37:05.955Z,22.77
2022-11-29T16:40:21.379Z,24.48
2022-11-29T16:43:56.257Z,24.42
2022-11-29T16:47:11.785Z,25.65
2022-11-29T16:50:20.812Z,25.05
2022-11-29T16:53:35.093Z,26.95
2022-11-29T16:56:39.109Z,25.83
2022-11-29T16:59:44.009Z,26.08
2022-11-29T17:02:46.636Z,25.60
2022-11-29T17:05:49.368Z,24.63
2022-11-29T17:08:53.451Z,25.58
2022-11-29T17:11:56.943Z,25.92
2022-11-29T17:15:01.377Z,25.10
2022-11-29T17:18:04.011Z,24.80
2022-11-29T17:21:06.719Z,21.58
2022-11-29T17:24:12.319Z,25.05
2022-11-29T17:27:14.815Z,21.58
2022-11-29T17:30:18.863Z,23.08
2022-11-29T17:33:21.635Z,18.52
2022-11-29T17:36:24.667Z,20.90
2022-11-29T17:39:27.548Z,19.48
2022-11-29T17:42:30.200Z,20.45
2022-11-29T17:45:34.246Z,21.20
2022-11-29T17:48:38.551Z,17.55
2022-11-29T17:51:56.675Z,20.02
2022-11-29T17:54:59.387Z,17.55
2022-11-29T17:58:02.081Z,17.50
2022-11-29T18:01:08.376Z,17.95
2022-11-29T18:04:10.889Z,17.17
2022-11-29T18:07:14.929Z,18.55
2022-11-29T18:10:17.589Z,16.35
2022-11-29T18:13:21.236Z,17.48
2022-11-29T18:16:27.574Z,17.13
2022-11-29T18:19:31.408Z,19.42
2022-11-29T18:22:34.027Z,16.52
2022-11-29T18:25:39.451Z,22.20
2022-11-29T18:28:44.010Z,18.30
2022-11-29T18:31:48.197Z,17.60
2022-11-29T18:34:51.052Z,17.52
2022-11-29T18:41:17.840Z,17.55
2022-11-29T18:44:29.661Z,20.80
2022-11-29T18:47:35.568Z,22.35
2022-11-29T18:50:38.199Z,21.70
2022-11-29T18:53:41.425Z,20.45
2022-11-29T18:56:45.065Z,19.65
2022-11-29T18:59:47.539Z,18.65
2022-11-29T19:02:51.614Z,19.42
2022-11-29T19:05:54.401Z,20.48
2022-11-29T19:08:59.954Z,22.15
2022-11-29T19:12:03.850Z,20.60
2022-11-29T19:15:08.844Z,18.95
2022-11-29T19:18:12.832Z,20.23
2022-11-29T19:21:16.764Z,18.10
2022-11-29T19:24:19.473Z,19.42
2022-11-29T19:27:26.138Z,21.65
2022-11-29T19:30:28.805Z,19.30
2022-11-29T19:33:37.459Z,20.40
2022-11-29T19:36:47.090Z,18.35
2022-11-29T19:39:50.464Z,18.95
2022-11-29T19:42:53.166Z,17.90
2022-11-29T19:45:58.667Z,18.45
2022-11-29T19:49:04.110Z,19.02
2022-11-29T19:52:06.825Z,19.45
2022-11-29T19:55:09.986Z,19.58
2022-11-29T19:58:21.783Z,19.88
2022-11-29T20:01:28.277Z,20.55
2022-11-29T20:04:32.596Z,20.33
2022-11-29T20:07:37.077Z,19.05
2022-11-29T20:10:42.437Z,18.40
2022-11-29T20:13:46.357Z,22.63
2022-11-29T20:16:51.746Z,22.58
2022-11-29T20:19:55.784Z,20.58
2022-11-29T20:22:58.249Z,20.20
2022-11-29T20:26:00.878Z,20.42
2022-11-29T20:29:07.122Z,19.92
2022-11-29T20:32:09.710Z,21.08
2022-11-29T20:35:17.666Z,20.92
2022-11-29T20:38:29.553Z,22.40
2022-11-29T20:41:37.709Z,23.23
2022-11-29T20:44:46.351Z,19.35
2022-11-29T20:47:54.819Z,22.10
2022-11-29T20:51:02.946Z,20.95
2022-11-29T20:54:05.751Z,19.95
2022-11-29T20:57:08.733Z,21.05
2022-11-29T21:00:12.843Z,23.42
2022-11-29T21:03:15.720Z,18.85
2022-11-29T21:06:19.546Z,22.02
2022-11-29T21:09:21.919Z,19.35
2022-11-29T21:12:24.744Z,19.45
2022-11-29T21:15:28.116Z,19.52
2022-11-29T21:18:32.915Z,19.23
2022-11-29T21:21:44.719Z,20.15
2022-11-29T21:24:52.294Z,19.75
2022-11-29T21:27:55.325Z,20.90
2022-11-29T21:30:58.503Z,21.23
2022-11-29T21:34:01.696Z,22.85
2022-11-29T21:37:05.588Z,21.17
2022-11-29T21:40:09.732Z,18.42
2022-11-29T21:43:15.155Z,22.27
2022-11-29T21:46:20.706Z,21.00
2022-11-29T21:49:23.399Z,24.38
2022-11-29T21:52:27.413Z,24.13
2022-11-29T21:55:32.054Z,22.55
2022-11-29T21:58:35.955Z,18.80
2022-11-29T22:01:40.036Z,20.70
2022-11-29T22:04:42.944Z,20.58
2022-11-29T22:07:47.078Z,20.70
2022-11-29T22:10:49.667Z,22.23
2022-11-29T22:14:12.092Z,22.83
2022-11-29T22:17:14.760Z,21.42
2022-11-29T22:20:17.544Z,21.73
2022-11-29T22:23:21.281Z,23.67
2022-11-29T22:26:24.145Z,22.42
2022-11-29T22:29:26.698Z,22.25
2022-11-29T22:32:31.960Z,23.60
2022-11-29T22:35:34.471Z,22.63
2022-11-29T22:38:38.661Z,22.58
2022-11-29T22:41:41.214Z,24.20
2022-11-29T22:44:43.914Z,23.25
2022-11-29T22:47:46.666Z,25.48
2022-11-29T22:50:49.555Z,22.95
2022-11-29T22:53:54.986Z,23.58
2022-11-29T22:56:57.475Z,22.02
2022-11-29T22:59:59.926Z,24.98
2022-11-29T23:03:03.927Z,22.85
2022-11-29T23:06:08.207Z,23.45
2022-11-29T23:09:16.307Z,21.67
2022-11-29T23:12:19.219Z,22.55
2022-11-29T23:15:21.793Z,21.90
2022-11-29T23:18:24.350Z,22.55
2022-11-29T23:21:28.213Z,22.08
2022-11-29T23:24:32.106Z,23.02
2022-11-29T23:27:34.780Z,21.45
2022-11-29T23:30:37.264Z,22.75
2022-11-29T23:33:40.040Z,21.98
2022-11-29T23:36:44.788Z,22.80
2022-11-29T23:39:52.230Z,25.85
2022-11-29T23:42:54.738Z,22.25
2022-11-29T23:45:57.214Z,25.60
2022-11-29T23:48:59.852Z,22.52
2022-11-29T23:52:02.451Z,24.13
2022-11-29T23:55:07.011Z,25.40
2022-11-29T23:58:10.101Z,24.25
